createdAt,value
2019-01-14T00:00:29.690Z,99977.95
2019-01-14T00:03:09.708Z,99972.71
2019-01-14T00:05:49.889Z,99976.13
2019-01-14T00:08:25.480Z,99967.38
2019-01-14T00:11:01.041Z,99963.91
2019-01-14T00:13:35.299Z,99954.70
2019-01-14T00:16:13.593Z,99956.63
2019-01-14T00:18:48.909Z,99947.03
2019-01-14T00:21:25.059Z,99944.59
2019-01-14T00:24:00.192Z,99939.19
2019-01-14T00:27:09.744Z,99948.60
2019-01-14T00:29:51.599Z,99953.63
2019-01-14T00:32:25.973Z,99971.62
2019-01-14T00:35:03.782Z,99972.80
2019-01-14T00:37:38.424Z,99974.69
2019-01-14T00:40:14.729Z,99972.52
2019-01-14T00:42:49.308Z,99973.16
2019-01-14T00:45:26.986Z,99984.58
2019-01-14T00:48:01.459Z,99980.25
2019-01-14T00:50:37.677Z,99980.20
2019-01-14T00:53:14.769Z,99982.80
2019-01-14T00:55:50.811Z,99975.75
2019-01-14T00:58:29.948Z,99974.77
2019-01-14T01:01:27.248Z,99973.31
2019-01-14T01:04:01.139Z,99967.98
2019-01-14T01:06:38.081Z,99968.54
2019-01-14T01:09:19.974Z,99957.02
2019-01-14T01:12:00.438Z,99960.83
2019-01-14T01:14:53.918Z,99966.58
2019-01-14T01:17:28.280Z,99949.81
2019-01-14T01:20:03.007Z,99965.62
2019-01-14T01:22:42.454Z,99961.84
2019-01-14T01:25:19.454Z,99958.76
2019-01-14T01:27:56.471Z,99953.59
2019-01-14T01:30:32.036Z,99954.98
2019-01-14T01:33:23.023Z,99950.59
2019-01-14T01:36:01.132Z,99947.84
2019-01-14T01:38:38.057Z,99948.90
2019-01-14T01:41:22.456Z,99949.97
2019-01-14T01:43:58.092Z,99953.58
2019-01-14T01:46:39.235Z,99950.20
2019-01-14T01:49:16.764Z,99947.06
2019-01-14T01:51:52.724Z,99954.20
2019-01-14T01:54:28.065Z,99951.58
2019-01-14T01:57:03.153Z,99947.35
2019-01-14T01:59:41.115Z,99947.70
2019-01-14T02:02:17.774Z,99950.47
2019-01-14T02:05:02.052Z,99940.81
2019-01-14T02:07:41.269Z,99944.55
2019-01-14T02:10:21.280Z,99940.72
2019-01-14T02:13:04.244Z,99934.13
2019-01-14T02:15:46.973Z,99930.95
2019-01-14T02:18:22.677Z,99930.72
2019-01-14T02:20:56.804Z,99930.22
2019-01-14T02:23:31.584Z,99923.20
2019-01-14T02:26:08.203Z,99921.05
2019-01-14T02:28:44.542Z,99914.60
2019-01-14T02:31:19.345Z,99904.48
2019-01-14T02:33:56.181Z,99904.01
2019-01-14T02:36:30.569Z,99911.14
2019-01-14T02:39:04.758Z,99913.51
2019-01-14T02:41:38.753Z,99902.19
2019-01-14T02:44:13.400Z,99896.03
2019-01-14T02:46:58.744Z,99891.20
2019-01-14T02:49:33.737Z,99886.86
2019-01-14T02:52:07.523Z,99884.53
2019-01-14T02:54:42.243Z,99876.20
2019-01-14T02:57:16.184Z,99863.72
2019-01-14T02:59:49.798Z,99858.51
2019-01-14T03:02:23.916Z,99850.67
2019-01-14T03:04:58.646Z,99848.33
2019-01-14T03:07:37.238Z,99840.58
2019-01-14T03:10:11.830Z,99841.67
2019-01-14T03:12:46.205Z,99839.70
2019-01-14T03:15:20.399Z,99827.14
2019-01-14T03:17:54.194Z,99825.31
2019-01-14T03:20:27.800Z,99823.23
2019-01-14T03:23:01.290Z,99814.56
2019-01-14T03:25:34.890Z,99814.02
2019-01-14T03:28:08.500Z,99806.79
2019-01-14T03:30:50.946Z,99798.06
2019-01-14T03:33:22.947Z,99789.53
2019-01-14T03:35:56.561Z,99789.06
2019-01-14T03:38:31.394Z,99793.09
2019-01-14T03:41:07.734Z,99784.77
2019-01-14T03:43:43.081Z,99775.75
2019-01-14T03:46:17.351Z,99773.49
2019-01-14T03:48:52.264Z,99775.06
2019-01-14T03:51:25.847Z,99764.75
2019-01-14T03:54:00.591Z,99760.78
2019-01-14T03:56:34.359Z,99753.78
2019-01-14T03:59:08.022Z,99756.77
2019-01-14T04:01:41.753Z,99752.60
2019-01-14T04:04:15.583Z,99740.88
2019-01-14T04:06:49.667Z,99739.17
2019-01-14T04:09:24.649Z,99733.95
2019-01-14T04:11:58.396Z,99731.23
2019-01-14T04:14:32.033Z,99726.11
2019-01-14T04:17:05.733Z,99712.20
2019-01-14T04:19:40.416Z,99712.36
2019-01-14T04:22:14.184Z,99715.34
2019-01-14T04:24:47.789Z,99707.64
2019-01-14T04:27:22.716Z,99707.39
2019-01-14T04:29:56.561Z,99696.76
2019-01-14T04:32:30.002Z,99691.16
2019-01-14T04:35:03.341Z,99679.95
2019-01-14T04:37:39.735Z,99679.64
2019-01-14T04:40:15.549Z,99670.47
2019-01-14T04:42:49.942Z,99663.18
2019-01-14T04:45:24.426Z,99663.52
2019-01-14T04:47:58.336Z,99655.11
2019-01-14T04:50:34.631Z,99660.27
2019-01-14T04:53:09.087Z,99661.28
2019-01-14T04:55:44.011Z,99653.95
2019-01-14T04:58:17.834Z,99652.14
2019-01-14T05:00:51.592Z,99652.14
2019-01-14T05:03:29.068Z,99656.74
2019-01-14T05:06:02.747Z,99647.23
2019-01-14T05:08:37.703Z,99642.41
2019-01-14T05:11:11.966Z,99634.23
2019-01-14T05:13:45.733Z,99645.08
2019-01-14T05:16:19.788Z,99637.38
2019-01-14T05:18:53.502Z,99634.78
2019-01-14T05:21:27.283Z,99627.25
2019-01-14T05:24:03.266Z,99621.84
2019-01-14T05:26:38.147Z,99621.84
2019-01-14T05:29:12.164Z,99615.63
2019-01-14T05:31:48.783Z,99597.20
2019-01-14T05:34:22.530Z,99597.20
2019-01-14T05:36:56.086Z,99598.47
2019-01-14T05:39:30.725Z,99594.34
2019-01-14T05:42:10.001Z,99595.32
2019-01-14T05:44:44.697Z,99592.52
2019-01-14T05:47:20.878Z,99582.27
2019-01-14T05:49:56.004Z,99584.24
2019-01-14T05:52:30.756Z,99585.30
2019-01-14T05:55:04.290Z,99590.04
2019-01-14T05:57:37.876Z,99590.47
2019-01-14T06:00:32.518Z,99587.05
2019-01-14T06:03:07.142Z,99581.60
2019-01-14T06:05:41.258Z,99582.83
2019-01-14T06:08:15.034Z,99583.38
2019-01-14T06:10:48.673Z,99577.22
2019-01-14T06:13:22.570Z,99577.34
2019-01-14T06:15:56.258Z,99572.28
2019-01-14T06:18:30.105Z,99574.75
2019-01-14T06:21:06.987Z,99583.94
2019-01-14T06:23:49.286Z,99585.08
2019-01-14T06:26:23.178Z,99580.80
2019-01-14T06:28:57.206Z,99597.16
2019-01-14T06:31:30.714Z,99597.16
2019-01-14T06:34:04.701Z,99597.87
2019-01-14T06:36:38.385Z,99599.23
2019-01-14T06:39:13.199Z,99600.93
2019-01-14T06:41:47.850Z,99603.52
2019-01-14T06:44:21.871Z,99600.34
2019-01-14T06:46:59.631Z,99597.23
2019-01-14T06:49:34.169Z,99600.03
2019-01-14T06:52:08.923Z,99598.16
2019-01-14T06:54:44.011Z,99599.27
2019-01-14T06:57:18.482Z,99599.02
2019-01-14T06:59:52.229Z,99593.96
2019-01-14T07:02:26.099Z,99594.24
2019-01-14T07:04:59.811Z,99594.55
2019-01-14T07:07:33.550Z,99590.33
2019-01-14T07:10:08.590Z,99587.51
2019-01-14T07:12:42.100Z,99592.27
2019-01-14T07:15:16.908Z,99593.68
2019-01-14T07:17:50.749Z,99598.73
2019-01-14T07:20:25.803Z,99589.67
2019-01-14T07:23:00.454Z,99591.75
2019-01-14T07:25:34.791Z,99592.80
2019-01-14T07:28:09.008Z,99588.59
2019-01-14T07:30:43.181Z,99588.02
2019-01-14T07:33:17.334Z,99577.72
2019-01-14T07:35:51.611Z,99580.30
2019-01-14T07:38:27.257Z,99577.01
2019-01-14T07:41:01.156Z,99577.40
2019-01-14T07:43:35.823Z,99582.03
2019-01-14T07:46:09.920Z,99573.99
2019-01-14T07:48:43.991Z,99575.55
2019-01-14T07:51:17.862Z,99573.70
2019-01-14T07:53:55.787Z,99564.55
2019-01-14T07:56:29.540Z,99564.81
2019-01-14T07:59:03.170Z,99563.08
2019-01-14T08:01:37.440Z,99566.41
2019-01-14T08:04:11.305Z,99564.50
2019-01-14T08:06:44.762Z,99558.00
2019-01-14T08:09:20.127Z,99557.77
2019-01-14T08:11:53.741Z,99557.67
2019-01-14T08:14:27.235Z,99563.57
2019-01-14T08:17:01.030Z,99562.84
2019-01-14T08:19:34.706Z,99555.48
2019-01-14T08:22:08.436Z,99563.62
2019-01-14T08:24:42.480Z,99561.57
2019-01-14T08:27:17.115Z,99555.31
2019-01-14T08:29:50.877Z,99556.92
2019-01-14T08:32:26.025Z,99554.66
2019-01-14T08:34:59.876Z,99548.81
2019-01-14T08:37:35.807Z,99542.33
2019-01-14T08:40:13.210Z,99540.27
2019-01-14T08:42:48.090Z,99541.13
2019-01-14T08:45:24.796Z,99541.06
2019-01-14T08:47:58.683Z,99547.09
2019-01-14T08:50:33.102Z,99550.22
2019-01-14T08:53:07.732Z,99550.06
2019-01-14T08:55:41.414Z,99543.97
2019-01-14T08:58:15.416Z,99543.27
2019-01-14T09:00:49.061Z,99540.66
2019-01-14T09:03:23.197Z,99539.36
2019-01-14T09:05:57.623Z,99543.66
2019-01-14T09:08:31.260Z,99546.55
2019-01-14T09:11:05.986Z,99540.88
2019-01-14T09:13:43.514Z,99548.34
2019-01-14T09:16:17.559Z,99542.03
2019-01-14T09:18:53.273Z,99553.57
2019-01-14T09:21:28.400Z,99551.63
2019-01-14T09:24:02.755Z,99548.44
2019-01-14T09:26:39.034Z,99559.09
2019-01-14T09:29:15.328Z,99559.72
2019-01-14T09:31:52.968Z,99559.72
2019-01-14T09:34:27.762Z,99561.56
2019-01-14T09:37:03.612Z,99565.59
2019-01-14T09:39:38.174Z,99566.48
2019-01-14T09:42:16.726Z,99563.52
2019-01-14T09:44:51.272Z,99563.20
2019-01-14T09:47:28.126Z,99560.28
2019-01-14T09:50:02.675Z,99567.67
2019-01-14T09:52:37.324Z,99565.38
2019-01-14T09:55:13.799Z,99562.64
2019-01-14T09:57:50.952Z,99565.72
2019-01-14T10:00:28.227Z,99553.00
2019-01-14T10:03:04.385Z,99560.28
2019-01-14T10:05:39.304Z,99556.46
2019-01-14T10:08:14.238Z,99556.84
2019-01-14T10:10:49.772Z,99560.66
2019-01-14T10:13:24.367Z,99569.75
2019-01-14T10:15:59.424Z,99565.70
2019-01-14T10:18:33.745Z,99557.56
2019-01-14T10:21:08.497Z,99559.66
2019-01-14T10:23:44.345Z,99552.86
2019-01-14T10:26:19.327Z,99550.05
2019-01-14T10:28:54.700Z,99551.53
2019-01-14T10:31:29.295Z,99544.88
2019-01-14T10:34:04.067Z,99552.21
2019-01-14T10:36:38.739Z,99549.58
2019-01-14T10:39:17.578Z,99537.95
2019-01-14T10:41:52.202Z,99544.31
2019-01-14T10:44:27.108Z,99542.33
2019-01-14T10:47:02.686Z,99547.28
2019-01-14T10:49:38.224Z,99547.59
2019-01-14T10:52:12.854Z,99548.01
2019-01-14T10:54:48.564Z,99551.98
2019-01-14T10:57:23.179Z,99546.41
2019-01-14T10:59:59.318Z,99544.33
2019-01-14T11:02:33.761Z,99547.01
2019-01-14T11:05:10.049Z,99549.31
2019-01-14T11:07:45.578Z,99550.59
2019-01-14T11:10:20.906Z,99548.98
2019-01-14T11:12:56.106Z,99544.61
2019-01-14T11:15:30.062Z,99556.28
2019-01-14T11:18:07.073Z,99547.37
2019-01-14T11:20:43.542Z,99542.39
2019-01-14T11:23:18.786Z,99545.90
2019-01-14T11:25:52.839Z,99545.65
2019-01-14T11:28:30.303Z,99545.69
2019-01-14T11:31:06.381Z,99541.41
2019-01-14T11:33:41.971Z,99543.16
2019-01-14T11:36:16.976Z,99536.57
2019-01-14T11:38:52.991Z,99536.84
2019-01-14T11:41:30.271Z,99534.69
2019-01-14T11:44:05.635Z,99527.09
2019-01-14T11:46:40.068Z,99530.12
2019-01-14T11:49:17.014Z,99527.12
2019-01-14T11:51:52.952Z,99528.42
2019-01-14T11:54:30.249Z,99521.48
2019-01-14T11:57:08.840Z,99522.55
2019-01-14T11:59:44.046Z,99528.21
2019-01-14T12:02:18.919Z,99527.16
2019-01-14T12:04:54.946Z,99530.29
2019-01-14T12:07:31.199Z,99528.16
2019-01-14T12:10:07.388Z,99532.40
2019-01-14T12:12:43.094Z,99534.60
2019-01-14T12:15:23.510Z,99519.55
2019-01-14T12:18:00.128Z,99520.48
2019-01-14T12:20:35.345Z,99526.95
2019-01-14T12:23:10.773Z,99525.25
2019-01-14T12:25:45.759Z,99528.21
2019-01-14T12:28:20.929Z,99526.50
2019-01-14T12:30:55.754Z,99527.33
2019-01-14T12:33:31.005Z,99528.95
2019-01-14T12:36:08.368Z,99536.16
2019-01-14T12:38:43.232Z,99531.69
2019-01-14T12:41:19.108Z,99532.92
2019-01-14T12:43:54.406Z,99526.89
2019-01-14T12:46:32.052Z,99534.22
2019-01-14T12:49:10.923Z,99530.86
2019-01-14T12:51:46.190Z,99534.82
2019-01-14T12:54:21.660Z,99534.23
2019-01-14T12:56:56.677Z,99541.14
2019-01-14T12:59:34.873Z,99533.12
2019-01-14T13:02:11.251Z,99533.81
2019-01-14T13:04:49.174Z,99538.25
2019-01-14T13:07:24.374Z,99536.25
2019-01-14T13:10:16.339Z,99542.63
2019-01-14T13:12:51.835Z,99535.84
2019-01-14T13:15:30.292Z,99535.70
2019-01-14T13:18:06.750Z,99539.44
2019-01-14T13:20:43.604Z,99533.53
2019-01-14T13:23:25.679Z,99536.92
2019-01-14T13:26:01.469Z,99533.75
2019-01-14T13:31:33.950Z,99517.38
2019-01-14T13:34:11.617Z,99519.84
2019-01-14T13:36:46.366Z,99522.59
2019-01-14T13:39:21.548Z,99524.62
2019-01-14T13:41:56.805Z,99518.55
2019-01-14T13:44:31.855Z,99517.62
2019-01-14T13:47:07.488Z,99525.86
2019-01-14T13:49:42.380Z,99534.77
2019-01-14T13:52:18.362Z,99539.23
2019-01-14T13:54:53.180Z,99541.16
2019-01-14T13:57:27.727Z,99541.92
2019-01-14T14:00:02.094Z,99535.05
2019-01-14T14:02:40.244Z,99542.28
2019-01-14T14:05:17.912Z,99550.94
2019-01-14T14:07:55.543Z,99544.77
2019-01-14T14:10:31.824Z,99554.81
2019-01-14T14:13:06.442Z,99559.06
2019-01-14T14:15:58.917Z,99560.94
2019-01-14T14:18:33.653Z,99563.77
2019-01-14T14:21:09.808Z,99563.34
2019-01-14T14:26:10.864Z,99568.31
2019-01-14T14:39:36.687Z,99582.70
2019-01-14T14:42:10.836Z,99578.62
2019-01-14T14:44:44.774Z,99579.30
2019-01-14T14:47:19.219Z,99577.16
2019-01-14T14:49:56.828Z,99576.96
2019-01-14T14:52:34.479Z,99576.70
2019-01-14T14:55:10.005Z,99579.45
2019-01-14T14:57:46.374Z,99578.97
2019-01-14T15:00:25.153Z,99574.70
2019-01-14T15:02:59.260Z,99567.42
2019-01-14T15:05:33.234Z,99574.00
2019-01-14T15:08:12.265Z,99579.11
2019-01-14T15:10:46.364Z,99574.12
2019-01-14T15:13:20.463Z,99576.78
2019-01-14T15:15:54.547Z,99579.07
2019-01-14T15:18:28.493Z,99578.17
2019-01-14T15:21:05.873Z,99574.51
2019-01-14T15:23:39.815Z,99566.89
2019-01-14T15:26:15.828Z,99563.16
2019-01-14T15:28:49.740Z,99570.70
2019-01-14T15:31:26.703Z,99568.77
2019-01-14T15:34:01.670Z,99559.45
2019-01-14T15:36:40.987Z,99571.44
2019-01-14T15:39:16.306Z,99554.34
2019-01-14T15:41:52.379Z,99560.16
2019-01-14T15:44:25.985Z,99563.23
2019-01-14T15:47:01.292Z,99560.88
2019-01-14T15:49:38.008Z,99577.88
2019-01-14T15:52:12.011Z,99581.20
2019-01-14T15:54:50.110Z,99584.83
2019-01-14T15:57:23.805Z,99591.53
2019-01-14T15:59:57.635Z,99589.06
2019-01-14T16:02:31.556Z,99591.37
2019-01-14T16:05:07.925Z,99594.97
2019-01-14T16:07:42.577Z,99600.81
2019-01-14T16:10:24.188Z,99597.70
2019-01-14T16:12:58.207Z,99602.78
2019-01-14T16:15:32.132Z,99608.72
2019-01-14T16:18:06.200Z,99607.78
2019-01-14T16:20:42.978Z,99610.09
2019-01-14T16:23:16.825Z,99604.28
2019-01-14T16:25:51.359Z,99601.63
2019-01-14T16:28:25.358Z,99602.95
2019-01-14T16:30:59.125Z,99617.94
2019-01-14T16:33:36.233Z,99622.39
2019-01-14T16:36:10.299Z,99612.27
2019-01-14T16:38:44.164Z,99615.09
2019-01-14T16:41:21.152Z,99618.08
2019-01-14T16:43:56.086Z,99624.73
2019-01-14T16:46:30.700Z,99628.21
2019-01-14T16:49:04.712Z,99632.86
2019-01-14T16:51:38.408Z,99640.00
2019-01-14T16:54:14.990Z,99650.48
2019-01-14T16:56:49.370Z,99647.83
2019-01-14T16:59:24.019Z,99648.82
2019-01-14T17:01:57.664Z,99643.02
2019-01-14T17:04:31.654Z,99659.95
2019-01-14T17:07:05.711Z,99668.39
2019-01-14T17:09:39.653Z,99668.19
2019-01-14T17:12:13.780Z,99673.52
2019-01-14T17:14:47.608Z,99670.69
2019-01-14T17:17:22.279Z,99670.81
2019-01-14T17:19:56.256Z,99674.53
2019-01-14T17:22:29.742Z,99675.55
2019-01-14T17:25:04.029Z,99683.00
2019-01-14T17:27:37.773Z,99688.76
2019-01-14T17:30:25.980Z,99692.78
2019-01-14T17:33:03.235Z,99689.77
2019-01-14T17:36:29.555Z,99694.59
2019-01-14T17:39:54.858Z,99707.22
2019-01-14T17:43:20.432Z,99721.64
2019-01-14T17:46:46.918Z,99728.77
2019-01-14T17:50:12.082Z,99737.23
2019-01-14T17:53:39.598Z,99746.00
2019-01-14T17:57:05.061Z,99749.33
2019-01-14T18:00:29.973Z,99751.00
2019-01-14T18:03:55.485Z,99763.83
2019-01-14T18:07:22.480Z,99770.98
2019-01-14T18:09:55.458Z,99773.92
2019-01-14T18:12:28.632Z,99764.73
2019-01-14T18:15:01.831Z,99773.52
2019-01-14T18:17:35.023Z,99775.55
2019-01-14T18:20:12.100Z,99782.47
2019-01-14T18:22:45.183Z,99777.56
2019-01-14T18:25:18.854Z,99771.75
2019-01-14T18:27:51.808Z,99782.52
2019-01-14T18:30:24.419Z,99785.52
2019-01-14T18:32:57.302Z,99777.73
2019-01-14T18:35:30.254Z,99776.75
2019-01-14T18:38:03.197Z,99770.57
2019-01-14T18:40:36.065Z,99768.08
2019-01-14T18:43:08.887Z,99771.56
2019-01-14T18:45:41.606Z,99775.92
2019-01-14T18:48:14.379Z,99767.52
2019-01-14T18:50:46.917Z,99773.41
2019-01-14T18:53:19.553Z,99776.92
2019-01-14T18:55:58.241Z,99784.91
2019-01-14T18:58:30.985Z,99786.50
2019-01-14T19:01:03.854Z,99790.05
2019-01-14T19:03:36.541Z,99787.35
2019-01-14T19:06:09.489Z,99788.01
2019-01-14T19:08:42.344Z,99790.52
2019-01-14T19:11:15.505Z,99790.85
2019-01-14T19:13:48.210Z,99807.69
2019-01-14T19:16:20.809Z,99803.55
2019-01-14T19:18:54.013Z,99806.15
2019-01-14T19:21:26.772Z,99810.86
2019-01-14T19:24:09.179Z,99810.89
2019-01-14T19:26:42.864Z,99808.70
2019-01-14T19:29:15.745Z,99807.12
2019-01-14T19:31:48.844Z,99818.73
2019-01-14T19:34:21.544Z,99826.52
2019-01-14T19:36:54.399Z,99825.77
2019-01-14T19:39:27.225Z,99826.27
2019-01-14T19:42:00.158Z,99823.84
2019-01-14T19:44:32.815Z,99823.86
2019-01-14T19:47:05.934Z,99830.89
2019-01-14T19:49:39.984Z,99831.61
2019-01-14T19:52:14.052Z,99833.66
2019-01-14T19:54:47.072Z,99843.88
2019-01-14T19:57:19.929Z,99841.34
2019-01-14T19:59:53.147Z,99839.23
2019-01-14T20:02:25.611Z,99835.70
2019-01-14T20:04:58.005Z,99833.45
2019-01-14T20:07:30.792Z,99839.45
2019-01-14T20:10:03.667Z,99836.07
2019-01-14T20:12:37.690Z,99836.67
2019-01-14T20:15:19.684Z,99833.44
2019-01-14T20:17:53.273Z,99840.70
2019-01-14T20:20:26.298Z,99824.36
2019-01-14T20:22:59.699Z,99839.38
2019-01-14T20:25:32.800Z,99844.02
2019-01-14T20:28:06.169Z,99837.77
2019-01-14T20:30:39.458Z,99847.36
2019-01-14T20:33:13.091Z,99851.15
2019-01-14T20:35:47.008Z,99846.83
2019-01-14T20:38:20.568Z,99859.26
2019-01-14T20:40:54.415Z,99860.94
2019-01-14T20:43:27.886Z,99878.81
2019-01-14T20:46:01.573Z,99894.48
2019-01-14T20:48:35.067Z,99892.45
2019-01-14T20:51:09.269Z,99899.12
2019-01-14T20:53:44.598Z,99893.52
2019-01-14T20:56:18.369Z,99884.27
2019-01-14T20:58:51.825Z,99889.52
2019-01-14T21:01:49.443Z,99895.98
2019-01-14T21:04:23.464Z,99901.20
2019-01-14T21:06:57.958Z,99904.86
2019-01-14T21:09:31.803Z,99904.67
2019-01-14T21:12:05.703Z,99911.00
2019-01-14T21:14:43.763Z,99912.80
2019-01-14T21:17:18.746Z,99920.47
2019-01-14T21:19:53.647Z,99928.02
2019-01-14T21:22:27.551Z,99929.16
2019-01-14T21:25:00.974Z,99928.02
2019-01-14T21:27:50.707Z,99928.05
2019-01-14T21:30:26.826Z,99928.62
2019-01-14T21:33:00.742Z,99926.03
2019-01-14T21:35:34.198Z,99952.76
2019-01-14T21:38:08.074Z,99954.69
2019-01-14T21:40:41.736Z,99964.36
2019-01-14T21:43:15.705Z,99980.28
2019-01-14T21:45:49.917Z,99990.17
2019-01-14T21:48:25.560Z,99990.17
2019-01-14T21:51:02.590Z,99995.20
2019-01-14T21:53:34.967Z,100013.92
2019-01-14T21:56:08.621Z,100007.69
2019-01-14T21:58:46.562Z,100008.30
2019-01-14T22:01:20.316Z,100007.09
2019-01-14T22:03:54.879Z,100014.02
2019-01-14T22:06:28.629Z,100022.88
2019-01-14T22:09:02.803Z,100019.65
2019-01-14T22:11:40.273Z,100022.60
2019-01-14T22:14:14.273Z,100025.53
2019-01-14T22:16:49.376Z,100032.90
2019-01-14T22:19:24.316Z,100040.06
2019-01-14T22:21:58.150Z,100044.34
2019-01-14T22:24:31.870Z,100051.15
2019-01-14T22:27:05.983Z,100059.14
2019-01-14T22:29:52.024Z,100055.97
2019-01-14T22:32:26.305Z,100056.86
2019-01-14T22:35:01.424Z,100049.81
2019-01-14T22:37:37.208Z,100044.63
2019-01-14T22:40:12.514Z,100042.25
2019-01-14T22:42:46.335Z,100037.47
2019-01-14T22:45:21.146Z,100043.63
2019-01-14T22:47:54.967Z,100048.99
2019-01-14T22:50:29.835Z,100055.84
2019-01-14T22:53:03.663Z,100053.14
2019-01-14T22:55:57.312Z,100062.58
2019-01-14T22:58:31.026Z,100069.08
2019-01-14T23:01:10.304Z,100065.63
2019-01-14T23:03:43.391Z,100082.09
2019-01-14T23:06:17.062Z,100080.58
2019-01-14T23:08:51.386Z,100083.21
2019-01-14T23:11:27.521Z,100102.13
2019-01-14T23:14:03.192Z,100106.37
2019-01-14T23:16:39.798Z,100104.53
2019-01-14T23:19:14.159Z,100098.72
2019-01-14T23:21:49.046Z,100110.80
2019-01-14T23:24:23.492Z,100107.61
2019-01-14T23:26:58.179Z,100118.91
2019-01-14T23:29:36.808Z,100122.73
2019-01-14T23:32:11.918Z,100125.25
2019-01-14T23:34:47.464Z,100114.56
2019-01-14T23:37:22.281Z,100123.19
2019-01-14T23:39:56.550Z,100114.94
2019-01-14T23:42:30.481Z,100119.41
2019-01-14T23:45:30.430Z,100133.59
2019-01-14T23:48:05.169Z,100143.89
2019-01-14T23:50:40.185Z,100152.58
2019-01-14T23:53:15.094Z,100158.98
2019-01-14T23:55:49.037Z,100163.61
2019-01-14T23:58:43.196Z,100175.45
